createdAt,value
2017-12-29T00:00:09.613Z,18.7
2017-12-29T00:00:35.209Z,18.7
2017-12-29T00:01:00.761Z,18.65
2017-12-29T00:01:26.358Z,18.62
2017-12-29T00:01:51.933Z,18.68
2017-12-29T00:02:17.531Z,18.67
2017-12-29T00:02:43.125Z,18.67
2017-12-29T00:03:08.689Z,18.65
2017-12-29T00:03:34.245Z,18.72
2017-12-29T00:03:59.838Z,18.64
2017-12-29T00:04:25.444Z,18.61
2017-12-29T00:04:51.016Z,18.68
2017-12-29T00:05:16.603Z,18.68
2017-12-29T00:05:42.191Z,18.61
2017-12-29T00:06:07.757Z,18.72
2017-12-29T00:06:33.322Z,18.64
2017-12-29T00:06:59.042Z,18.59
2017-12-29T00:07:24.642Z,18.61
2017-12-29T00:07:50.216Z,18.62
2017-12-29T00:08:15.791Z,18.62
2017-12-29T00:08:41.350Z,18.62
2017-12-29T00:09:06.938Z,18.58
2017-12-29T00:09:32.512Z,18.57
2017-12-29T00:09:58.097Z,18.62
2017-12-29T00:10:23.666Z,18.55
2017-12-29T00:10:49.233Z,18.59
2017-12-29T00:11:15.027Z,18.62
2017-12-29T00:11:40.686Z,18.68
2017-12-29T00:12:06.260Z,18.62
2017-12-29T00:12:31.836Z,18.61
2017-12-29T00:12:57.446Z,18.59
2017-12-29T00:13:22.947Z,18.61
2017-12-29T00:13:48.520Z,18.61
2017-12-29T00:14:14.084Z,18.61
2017-12-29T00:14:39.630Z,18.58
2017-12-29T00:15:05.221Z,18.65
2017-12-29T00:15:30.854Z,18.64
2017-12-29T00:15:56.416Z,18.61
2017-12-29T00:16:21.985Z,18.62
2017-12-29T00:16:47.584Z,18.59
2017-12-29T00:17:13.126Z,18.58
2017-12-29T00:17:38.697Z,18.61
2017-12-29T00:18:04.252Z,18.58
2017-12-29T00:18:29.847Z,18.58
2017-12-29T00:18:55.401Z,18.64
2017-12-29T00:19:20.952Z,18.62
2017-12-29T00:19:46.516Z,18.59
2017-12-29T00:20:12.088Z,18.59
2017-12-29T00:20:37.794Z,18.67
2017-12-29T00:21:03.376Z,18.62
2017-12-29T00:21:28.940Z,18.62
2017-12-29T00:21:54.497Z,18.67
2017-12-29T00:22:20.048Z,18.61
2017-12-29T00:22:45.633Z,18.61
2017-12-29T00:23:11.186Z,18.57
2017-12-29T00:23:36.718Z,18.58
2017-12-29T00:24:02.273Z,18.61
2017-12-29T00:24:27.834Z,18.68
2017-12-29T00:24:53.415Z,18.67
2017-12-29T00:25:18.989Z,18.62
2017-12-29T00:25:44.544Z,18.64
2017-12-29T00:26:10.140Z,18.61
2017-12-29T00:26:35.700Z,18.67
2017-12-29T00:27:01.365Z,18.58
2017-12-29T00:27:27.016Z,18.58
2017-12-29T00:27:52.573Z,18.59
2017-12-29T00:28:18.184Z,18.64
2017-12-29T00:28:43.783Z,18.59
2017-12-29T00:29:09.334Z,18.65
2017-12-29T00:29:34.898Z,18.65
2017-12-29T00:30:00.485Z,18.61
2017-12-29T00:30:26.062Z,18.62
2017-12-29T00:30:51.620Z,18.65
2017-12-29T00:31:17.188Z,18.62
2017-12-29T00:31:42.754Z,18.58
2017-12-29T00:32:08.338Z,18.58
2017-12-29T00:32:33.945Z,18.67
2017-12-29T00:32:59.497Z,18.58
2017-12-29T00:33:25.032Z,18.62
2017-12-29T00:33:50.695Z,18.67
2017-12-29T00:34:16.250Z,18.64
2017-12-29T00:34:41.819Z,18.58
2017-12-29T00:35:07.393Z,18.58
2017-12-29T00:35:32.920Z,18.59
2017-12-29T00:35:58.504Z,18.58
2017-12-29T00:36:24.075Z,18.67
2017-12-29T00:36:49.648Z,18.55
2017-12-29T00:37:15.222Z,18.61
2017-12-29T00:37:40.840Z,18.61
2017-12-29T00:38:06.554Z,18.55
2017-12-29T00:38:32.149Z,18.57
2017-12-29T00:38:57.718Z,18.57
2017-12-29T00:39:23.371Z,18.57
2017-12-29T00:39:48.938Z,18.58
2017-12-29T00:40:14.511Z,18.59
2017-12-29T00:40:40.195Z,18.64
2017-12-29T00:41:05.850Z,18.57
2017-12-29T00:41:31.408Z,18.58
2017-12-29T00:41:57.009Z,18.55
2017-12-29T00:42:22.659Z,18.61
2017-12-29T00:42:48.214Z,18.55
2017-12-29T00:43:13.756Z,18.55
2017-12-29T00:43:39.341Z,18.59
2017-12-29T00:44:04.977Z,18.62
2017-12-29T00:44:30.581Z,18.72
2017-12-29T00:44:56.151Z,18.72
2017-12-29T00:45:21.750Z,18.67
2017-12-29T00:45:47.307Z,18.65
2017-12-29T00:46:12.863Z,18.72
2017-12-29T00:46:38.419Z,18.58
2017-12-29T00:47:03.998Z,18.55
2017-12-29T00:47:29.553Z,18.65
2017-12-29T00:47:55.114Z,18.59
2017-12-29T00:48:20.667Z,18.57
2017-12-29T00:48:46.229Z,18.62
2017-12-29T00:49:11.832Z,18.62
2017-12-29T00:49:37.365Z,18.55
2017-12-29T00:50:03.016Z,18.62
2017-12-29T00:50:28.594Z,18.64
2017-12-29T00:50:54.152Z,18.61
2017-12-29T00:51:19.757Z,18.58
2017-12-29T00:51:45.342Z,18.72
2017-12-29T00:52:10.906Z,18.62
2017-12-29T00:52:36.463Z,18.61
2017-12-29T00:53:02.057Z,18.7
2017-12-29T00:53:27.624Z,18.57
2017-12-29T00:53:53.213Z,18.61
2017-12-29T00:54:18.772Z,18.55
2017-12-29T00:54:44.456Z,18.67
2017-12-29T00:55:10.026Z,18.64
2017-12-29T00:55:35.579Z,18.7
2017-12-29T00:56:01.125Z,18.65
2017-12-29T00:56:26.702Z,18.64
2017-12-29T00:56:52.258Z,18.72
2017-12-29T00:57:17.892Z,18.57
2017-12-29T00:57:43.456Z,18.61
2017-12-29T00:58:09.042Z,18.7
2017-12-29T00:58:34.592Z,18.54
2017-12-29T00:59:00.149Z,18.72
2017-12-29T00:59:25.702Z,18.62
2017-12-29T00:59:51.305Z,18.68
2017-12-29T01:00:16.872Z,18.67
2017-12-29T01:00:42.450Z,18.62
2017-12-29T01:01:07.993Z,18.7
2017-12-29T01:01:33.554Z,18.61
2017-12-29T01:01:59.146Z,18.61
2017-12-29T01:02:24.694Z,18.58
2017-12-29T01:02:50.235Z,18.7
2017-12-29T01:03:15.897Z,18.64
2017-12-29T01:03:41.456Z,18.58
2017-12-29T01:04:07.022Z,18.64
2017-12-29T01:04:32.576Z,18.62
2017-12-29T01:04:58.140Z,18.58
2017-12-29T01:05:23.742Z,18.65
2017-12-29T01:05:49.328Z,18.64
2017-12-29T01:06:14.871Z,18.61
2017-12-29T01:06:40.467Z,18.62
2017-12-29T01:07:06.064Z,18.68
2017-12-29T01:07:31.602Z,18.58
2017-12-29T01:07:57.164Z,18.61
2017-12-29T01:08:22.717Z,18.58
2017-12-29T01:08:48.274Z,18.68
2017-12-29T01:09:13.862Z,18.62
2017-12-29T01:09:39.406Z,18.59
2017-12-29T01:10:04.959Z,18.67
2017-12-29T01:10:30.625Z,18.55
2017-12-29T01:10:56.273Z,18.57
2017-12-29T01:11:21.798Z,18.61
2017-12-29T01:11:47.350Z,18.61
2017-12-29T01:12:12.899Z,18.68
2017-12-29T01:12:38.601Z,18.62
2017-12-29T01:13:04.175Z,18.59
2017-12-29T01:13:29.703Z,18.67
2017-12-29T01:13:55.424Z,18.7
2017-12-29T01:14:21.004Z,18.61
2017-12-29T01:14:46.566Z,18.65
2017-12-29T01:15:12.129Z,18.59
2017-12-29T01:15:37.673Z,18.58
2017-12-29T01:16:03.229Z,18.59
2017-12-29T01:16:28.814Z,18.59
2017-12-29T01:16:54.394Z,18.59
2017-12-29T01:17:19.959Z,18.61
2017-12-29T01:17:45.526Z,18.61
2017-12-29T01:18:11.133Z,18.59
2017-12-29T01:18:36.694Z,18.54
2017-12-29T01:19:02.259Z,18.58
2017-12-29T01:19:27.901Z,18.68
2017-12-29T01:19:53.453Z,18.57
2017-12-29T01:20:19.043Z,18.58
2017-12-29T01:20:44.648Z,18.61
2017-12-29T01:21:10.185Z,18.65
2017-12-29T01:21:35.757Z,18.64
2017-12-29T01:22:01.394Z,18.57
2017-12-29T01:22:26.962Z,18.58
2017-12-29T01:22:52.517Z,18.5
2017-12-29T01:23:18.131Z,18.59
2017-12-29T01:23:43.685Z,18.67
2017-12-29T01:24:09.245Z,18.62
2017-12-29T01:24:34.915Z,18.59
2017-12-29T01:25:00.446Z,18.55
2017-12-29T01:25:26.020Z,18.58
2017-12-29T01:25:51.623Z,18.61
2017-12-29T01:26:17.180Z,18.64
2017-12-29T01:26:42.748Z,18.58
2017-12-29T01:27:08.316Z,18.62
2017-12-29T01:27:33.862Z,18.58
2017-12-29T01:27:59.465Z,18.57
2017-12-29T01:28:25.029Z,18.65
2017-12-29T01:28:50.592Z,18.62
2017-12-29T01:29:16.204Z,18.57
2017-12-29T01:29:41.763Z,18.58
2017-12-29T01:30:07.439Z,18.59
2017-12-29T01:30:33.007Z,18.61
2017-12-29T01:30:58.568Z,18.54
2017-12-29T01:31:24.108Z,18.58
2017-12-29T01:31:49.675Z,18.58
2017-12-29T01:32:15.244Z,18.58
2017-12-29T01:32:40.848Z,18.58
2017-12-29T01:33:06.395Z,18.55
2017-12-29T01:33:32.025Z,18.59
2017-12-29T01:33:57.583Z,18.61
2017-12-29T01:34:23.144Z,18.55
2017-12-29T01:34:48.703Z,18.62
2017-12-29T01:35:14.276Z,18.55
2017-12-29T01:35:39.841Z,18.55
2017-12-29T01:36:05.423Z,18.55
2017-12-29T01:36:30.964Z,18.57
2017-12-29T01:36:56.508Z,18.55
2017-12-29T01:37:22.062Z,18.58
2017-12-29T01:37:47.621Z,18.59
2017-12-29T01:38:13.226Z,18.54
2017-12-29T01:38:38.875Z,18.62
2017-12-29T01:39:04.449Z,18.65
2017-12-29T01:39:30.019Z,18.59
2017-12-29T01:39:55.597Z,18.57
2017-12-29T01:40:21.140Z,18.55
2017-12-29T01:40:46.704Z,18.61
2017-12-29T01:41:12.255Z,18.58
2017-12-29T01:41:37.810Z,18.59
2017-12-29T01:42:03.388Z,18.59
2017-12-29T01:42:28.940Z,18.59
2017-12-29T01:42:54.569Z,18.54
2017-12-29T01:43:20.164Z,18.58
2017-12-29T01:43:45.774Z,18.55
2017-12-29T01:44:11.399Z,18.58
2017-12-29T01:44:36.970Z,18.55
2017-12-29T01:45:02.527Z,18.47
2017-12-29T01:45:28.093Z,18.52
2017-12-29T01:45:53.644Z,18.54
2017-12-29T01:46:19.202Z,18.55
2017-12-29T01:46:44.890Z,18.54
2017-12-29T01:47:10.501Z,18.62
2017-12-29T01:47:36.060Z,18.55
2017-12-29T01:48:01.619Z,18.52
2017-12-29T01:48:27.169Z,18.54
2017-12-29T01:48:52.733Z,18.52
2017-12-29T01:49:18.285Z,18.55
2017-12-29T01:49:43.864Z,18.52
2017-12-29T01:50:09.404Z,18.58
2017-12-29T01:50:35.012Z,18.54
2017-12-29T01:51:00.629Z,18.58
2017-12-29T01:51:26.190Z,18.55
2017-12-29T01:51:51.734Z,18.52
2017-12-29T01:52:17.413Z,18.57
2017-12-29T01:52:42.994Z,18.59
2017-12-29T01:53:08.609Z,18.57
2017-12-29T01:53:34.136Z,18.54
2017-12-29T01:53:59.705Z,18.54
2017-12-29T01:54:25.251Z,18.55
2017-12-29T01:54:50.895Z,18.52
2017-12-29T01:55:16.444Z,18.52
2017-12-29T01:55:42.012Z,18.55
2017-12-29T01:56:07.577Z,18.52
2017-12-29T01:56:33.142Z,18.59
2017-12-29T01:56:58.691Z,18.58
2017-12-29T01:57:24.278Z,18.44
2017-12-29T01:57:49.838Z,18.55
2017-12-29T01:58:15.476Z,18.59
2017-12-29T01:58:41.111Z,18.49
2017-12-29T01:59:06.667Z,18.52
2017-12-29T01:59:32.234Z,18.5
2017-12-29T01:59:57.786Z,18.5
2017-12-29T02:00:23.422Z,18.54
2017-12-29T02:00:48.978Z,18.46
2017-12-29T02:01:14.537Z,18.52
2017-12-29T02:01:40.094Z,18.52
2017-12-29T02:02:05.654Z,18.49
2017-12-29T02:02:31.214Z,18.5
2017-12-29T02:02:56.773Z,18.52
2017-12-29T02:03:22.353Z,18.55
2017-12-29T02:04:10.741Z,18.49
2017-12-29T02:04:36.301Z,18.55
2017-12-29T02:05:01.854Z,18.55
2017-12-29T02:05:27.434Z,18.58
2017-12-29T02:05:52.982Z,18.49
2017-12-29T02:06:18.556Z,18.49
2017-12-29T02:06:44.116Z,18.49
2017-12-29T02:07:09.734Z,18.49
2017-12-29T02:07:35.262Z,18.52
2017-12-29T02:08:00.828Z,18.49
2017-12-29T02:08:26.400Z,18.52
2017-12-29T02:08:51.956Z,18.52
2017-12-29T02:09:17.524Z,18.55
2017-12-29T02:09:43.068Z,18.54
2017-12-29T02:10:08.645Z,18.58
2017-12-29T02:10:34.222Z,18.52
2017-12-29T02:10:59.845Z,18.57
2017-12-29T02:11:25.385Z,18.59
2017-12-29T02:11:50.940Z,18.55
2017-12-29T02:12:16.633Z,18.46
2017-12-29T02:12:42.193Z,18.5
2017-12-29T02:13:07.758Z,18.46
2017-12-29T02:13:33.340Z,18.55
2017-12-29T02:13:58.902Z,18.54
2017-12-29T02:14:24.473Z,18.5
2017-12-29T02:14:50.143Z,18.52
2017-12-29T02:15:15.701Z,18.49
2017-12-29T02:15:41.273Z,18.54
2017-12-29T02:16:06.821Z,18.52
2017-12-29T02:16:32.359Z,18.55
2017-12-29T02:16:57.901Z,18.52
2017-12-29T02:17:23.466Z,18.49
2017-12-29T02:17:49.017Z,18.46
2017-12-29T02:18:14.561Z,18.47
2017-12-29T02:18:40.147Z,18.47
2017-12-29T02:19:05.744Z,18.49
2017-12-29T02:19:31.309Z,18.57
2017-12-29T02:19:56.865Z,18.52
2017-12-29T02:20:22.434Z,18.55
2017-12-29T02:20:47.973Z,18.52
2017-12-29T02:21:13.571Z,18.58
2017-12-29T02:21:39.128Z,18.5
2017-12-29T02:22:04.690Z,18.49
2017-12-29T02:22:30.239Z,18.52
2017-12-29T02:22:55.806Z,18.5
2017-12-29T02:23:21.374Z,18.54
2017-12-29T02:23:47.058Z,18.54
2017-12-29T02:24:12.643Z,18.58
2017-12-29T02:24:38.205Z,18.49
2017-12-29T02:25:03.811Z,18.5
2017-12-29T02:25:29.373Z,18.57
2017-12-29T02:25:54.935Z,18.57
2017-12-29T02:26:20.486Z,18.5
2017-12-29T02:26:46.040Z,18.58
2017-12-29T02:27:11.638Z,18.54
2017-12-29T02:27:37.222Z,18.58
2017-12-29T02:28:02.789Z,18.46
2017-12-29T02:28:28.349Z,18.54
2017-12-29T02:28:53.910Z,18.5
2017-12-29T02:29:19.475Z,18.55
2017-12-29T02:29:45.061Z,18.49
2017-12-29T02:30:10.621Z,18.49
2017-12-29T02:30:36.182Z,18.57
2017-12-29T02:31:01.751Z,18.52
2017-12-29T02:31:27.373Z,18.57
2017-12-29T02:31:52.991Z,18.47
2017-12-29T02:32:18.584Z,18.52
2017-12-29T02:32:44.168Z,18.49
2017-12-29T02:33:09.721Z,18.52
2017-12-29T02:33:35.280Z,18.57
2017-12-29T02:34:00.859Z,18.49
2017-12-29T02:34:26.439Z,18.5
2017-12-29T02:34:51.984Z,18.55
2017-12-29T02:35:17.587Z,18.55
2017-12-29T02:35:43.220Z,18.52
2017-12-29T02:36:08.788Z,18.49
2017-12-29T02:36:34.386Z,18.5
2017-12-29T02:37:00.030Z,18.47
2017-12-29T02:37:25.563Z,18.55
2017-12-29T02:37:51.123Z,18.5
2017-12-29T02:38:16.678Z,18.5
2017-12-29T02:38:42.237Z,18.58
2017-12-29T02:39:07.792Z,18.52
2017-12-29T02:39:33.352Z,18.55
2017-12-29T02:39:58.930Z,18.49
2017-12-29T02:40:24.518Z,18.47
2017-12-29T02:40:50.054Z,18.55
2017-12-29T02:41:15.616Z,18.52
2017-12-29T02:41:41.172Z,18.52
2017-12-29T02:42:06.717Z,18.52
2017-12-29T02:42:32.276Z,18.57
2017-12-29T02:42:57.832Z,18.5
2017-12-29T02:43:23.470Z,18.49
2017-12-29T02:43:49.032Z,18.5
2017-12-29T02:44:14.703Z,18.5
2017-12-29T02:44:40.387Z,18.5
2017-12-29T02:45:05.950Z,18.44
2017-12-29T02:45:31.512Z,18.52
2017-12-29T02:45:57.073Z,18.5
2017-12-29T02:46:22.645Z,18.5
2017-12-29T02:46:48.228Z,18.54
2017-12-29T02:47:13.825Z,18.5
2017-12-29T02:47:39.395Z,18.52
2017-12-29T02:48:04.969Z,18.5
2017-12-29T02:48:30.525Z,18.52
2017-12-29T02:48:56.060Z,18.5
2017-12-29T02:49:21.616Z,18.57
2017-12-29T02:49:47.183Z,18.52
2017-12-29T02:50:12.759Z,18.47
2017-12-29T02:50:38.295Z,18.46
2017-12-29T02:51:03.853Z,18.44
2017-12-29T02:51:29.401Z,18.49
2017-12-29T02:51:54.982Z,18.54
2017-12-29T02:52:20.578Z,18.46
2017-12-29T02:52:46.204Z,18.52
2017-12-29T02:53:11.772Z,18.47
2017-12-29T02:53:37.333Z,18.47
2017-12-29T02:54:02.987Z,18.54
2017-12-29T02:54:28.527Z,18.42
2017-12-29T02:54:54.107Z,18.44
2017-12-29T02:55:19.680Z,18.44
2017-12-29T02:55:45.256Z,18.5
2017-12-29T02:56:10.808Z,18.46
2017-12-29T02:56:36.362Z,18.47
2017-12-29T02:57:01.958Z,18.44
2017-12-29T02:57:27.540Z,18.5
2017-12-29T02:57:53.089Z,18.44
2017-12-29T02:58:18.652Z,18.52
2017-12-29T02:58:44.311Z,18.44
2017-12-29T02:59:09.980Z,18.4
2017-12-29T02:59:35.558Z,18.47
2017-12-29T03:00:01.101Z,18.46
2017-12-29T03:00:26.664Z,18.5
2017-12-29T03:00:52.227Z,18.46
2017-12-29T03:01:17.780Z,18.52
2017-12-29T03:01:43.396Z,18.52
2017-12-29T03:02:08.962Z,18.46
2017-12-29T03:02:34.596Z,18.42
2017-12-29T03:03:00.139Z,18.47
2017-12-29T03:03:25.766Z,18.49
2017-12-29T03:03:51.309Z,18.5
2017-12-29T03:04:16.867Z,18.47
2017-12-29T03:04:42.415Z,18.49
2017-12-29T03:05:07.969Z,18.47
2017-12-29T03:05:33.532Z,18.47
2017-12-29T03:05:59.078Z,18.44
2017-12-29T03:06:24.628Z,18.43
2017-12-29T03:06:50.205Z,18.43
2017-12-29T03:07:15.953Z,18.5
2017-12-29T03:07:41.500Z,18.46
2017-12-29T03:08:07.073Z,18.42
2017-12-29T03:08:32.623Z,18.49
2017-12-29T03:08:58.193Z,18.47
2017-12-29T03:09:23.740Z,18.46
2017-12-29T03:09:49.307Z,18.44
2017-12-29T03:10:14.853Z,18.52
2017-12-29T03:10:40.410Z,18.44
2017-12-29T03:11:05.956Z,18.46
2017-12-29T03:11:31.503Z,18.43
2017-12-29T03:11:57.140Z,18.39
2017-12-29T03:12:22.702Z,18.49
2017-12-29T03:12:48.259Z,18.47
2017-12-29T03:13:13.830Z,18.44
2017-12-29T03:13:39.448Z,18.43
2017-12-29T03:14:04.976Z,18.49
2017-12-29T03:14:30.547Z,18.43
2017-12-29T03:14:56.098Z,18.43
2017-12-29T03:15:21.702Z,18.46
2017-12-29T03:15:47.303Z,18.49
2017-12-29T03:16:12.906Z,18.42
2017-12-29T03:16:38.473Z,18.43
2017-12-29T03:17:04.028Z,18.42
2017-12-29T03:17:29.587Z,18.44
2017-12-29T03:17:55.148Z,18.4
2017-12-29T03:18:20.731Z,18.46
2017-12-29T03:18:46.269Z,18.44
2017-12-29T03:19:11.850Z,18.43
2017-12-29T03:19:37.421Z,18.43
2017-12-29T03:20:02.968Z,18.42
2017-12-29T03:20:28.530Z,18.43
2017-12-29T03:20:54.120Z,18.46
2017-12-29T03:21:19.676Z,18.43
2017-12-29T03:21:45.233Z,18.47
2017-12-29T03:22:10.781Z,18.4
2017-12-29T03:22:36.358Z,18.43
2017-12-29T03:23:01.920Z,18.44
2017-12-29T03:23:27.592Z,18.46
2017-12-29T03:23:53.148Z,18.4
2017-12-29T03:24:18.712Z,18.42
2017-12-29T03:24:44.277Z,18.42
2017-12-29T03:25:09.840Z,18.47
2017-12-29T03:25:35.398Z,18.4
2017-12-29T03:26:00.984Z,18.39
2017-12-29T03:26:26.517Z,18.42
2017-12-29T03:26:52.075Z,18.39
2017-12-29T03:27:17.661Z,18.46
2017-12-29T03:27:43.325Z,18.5
2017-12-29T03:28:08.891Z,18.4
2017-12-29T03:28:34.481Z,18.46
2017-12-29T03:29:00.060Z,18.39
2017-12-29T03:29:25.617Z,18.44
2017-12-29T03:29:51.172Z,18.37
2017-12-29T03:30:16.790Z,18.46
2017-12-29T03:30:42.367Z,18.4
2017-12-29T03:31:07.986Z,18.43
2017-12-29T03:31:33.535Z,18.4
2017-12-29T03:31:59.088Z,18.46
2017-12-29T03:32:24.644Z,18.39
2017-12-29T03:32:50.989Z,18.37
2017-12-29T03:33:15.796Z,18.42
2017-12-29T03:33:41.364Z,18.52
2017-12-29T03:34:06.948Z,18.5
2017-12-29T03:35:00.420Z,18.46
2017-12-29T03:35:26.004Z,18.44
2017-12-29T03:35:51.570Z,18.37
2017-12-29T03:36:17.128Z,18.42
2017-12-29T03:36:42.688Z,18.4
2017-12-29T03:37:08.263Z,18.39
2017-12-29T03:37:33.890Z,18.4
2017-12-29T03:37:59.442Z,18.43
2017-12-29T03:38:25.004Z,18.52
2017-12-29T03:38:50.568Z,18.4
2017-12-29T03:39:16.093Z,18.46
2017-12-29T03:39:41.668Z,18.49
2017-12-29T03:40:07.219Z,18.46
2017-12-29T03:40:32.781Z,18.46
2017-12-29T03:40:58.427Z,18.42
2017-12-29T03:41:23.987Z,18.52
2017-12-29T03:41:49.543Z,18.44
2017-12-29T03:42:15.131Z,18.39
2017-12-29T03:42:40.696Z,18.47
2017-12-29T03:43:06.258Z,18.44
2017-12-29T03:43:31.830Z,18.4
2017-12-29T03:43:57.412Z,18.42
2017-12-29T03:44:22.963Z,18.39
2017-12-29T03:44:48.647Z,18.42
2017-12-29T03:45:14.335Z,18.37
2017-12-29T03:45:39.896Z,18.42
2017-12-29T03:46:05.472Z,18.5
2017-12-29T03:46:31.016Z,18.4
2017-12-29T03:46:56.567Z,18.44
2017-12-29T03:47:22.113Z,18.43
2017-12-29T03:47:47.692Z,18.46
2017-12-29T03:48:13.234Z,18.46
2017-12-29T03:48:38.812Z,18.37
2017-12-29T03:49:04.389Z,18.42
2017-12-29T03:49:29.937Z,18.4
2017-12-29T03:49:55.485Z,18.4
2017-12-29T03:50:21.044Z,18.43
2017-12-29T03:50:46.612Z,18.43
2017-12-29T03:51:12.265Z,18.39
2017-12-29T03:51:37.888Z,18.5
2017-12-29T03:52:03.490Z,18.42
2017-12-29T03:52:29.067Z,18.34
2017-12-29T03:52:54.642Z,18.47
2017-12-29T03:53:20.190Z,18.4
2017-12-29T03:53:45.751Z,18.49
2017-12-29T03:54:11.322Z,18.4
2017-12-29T03:54:36.892Z,18.49
2017-12-29T03:55:02.452Z,18.4
2017-12-29T03:55:28.095Z,18.44
2017-12-29T03:55:53.793Z,18.4
2017-12-29T03:56:19.341Z,18.39
2017-12-29T03:56:44.886Z,18.49
2017-12-29T03:57:10.553Z,18.4
2017-12-29T03:57:36.125Z,18.42
2017-12-29T03:58:01.688Z,18.46
2017-12-29T03:58:27.247Z,18.4
2017-12-29T03:58:52.811Z,18.44
2017-12-29T03:59:18.364Z,18.47
2017-12-29T03:59:44.022Z,18.4
2017-12-29T04:00:09.600Z,18.42
2017-12-29T04:00:35.173Z,18.42
2017-12-29T04:01:00.725Z,18.42
2017-12-29T04:01:26.295Z,18.43
2017-12-29T04:01:51.829Z,18.4
2017-12-29T04:02:17.461Z,18.4
2017-12-29T04:02:43.035Z,18.39
2017-12-29T04:03:08.595Z,18.4
2017-12-29T04:03:34.188Z,18.42
2017-12-29T04:03:59.737Z,18.4
2017-12-29T04:04:25.294Z,18.37
2017-12-29T04:04:50.864Z,18.39
2017-12-29T04:05:16.447Z,18.4
2017-12-29T04:05:42.003Z,18.37
2017-12-29T04:06:07.556Z,18.4
2017-12-29T04:06:33.094Z,18.46
2017-12-29T04:06:58.648Z,18.4
2017-12-29T04:07:24.176Z,18.4
2017-12-29T04:07:49.776Z,18.49
2017-12-29T04:08:15.331Z,18.39
2017-12-29T04:08:40.878Z,18.4
2017-12-29T04:09:06.428Z,18.42
2017-12-29T04:10:05.132Z,18.4
2017-12-29T04:10:30.695Z,18.39
2017-12-29T04:10:56.290Z,18.36
2017-12-29T04:11:21.857Z,18.37
2017-12-29T04:11:47.544Z,18.37
2017-12-29T04:12:13.128Z,18.43
2017-12-29T04:12:38.710Z,18.36
2017-12-29T04:13:04.264Z,18.36
2017-12-29T04:13:29.804Z,18.4
2017-12-29T04:13:55.368Z,18.36
2017-12-29T04:14:20.999Z,18.4
2017-12-29T04:14:46.657Z,18.33
2017-12-29T04:15:12.217Z,18.4
2017-12-29T04:15:37.748Z,18.39
2017-12-29T04:16:03.422Z,18.39
2017-12-29T04:16:28.989Z,18.36
2017-12-29T04:16:54.532Z,18.36
2017-12-29T04:17:20.081Z,18.29
2017-12-29T04:17:45.670Z,18.36
2017-12-29T04:18:11.246Z,18.36
2017-12-29T04:18:36.860Z,18.33
2017-12-29T04:19:02.453Z,18.39
2017-12-29T04:19:28.043Z,18.43
2017-12-29T04:19:53.585Z,18.39
2017-12-29T04:20:19.181Z,18.39
2017-12-29T04:20:44.739Z,18.44
2017-12-29T04:21:10.287Z,18.42
2017-12-29T04:21:35.841Z,18.39
2017-12-29T04:22:01.392Z,18.39
2017-12-29T04:22:27.033Z,18.39
2017-12-29T04:22:52.664Z,18.44
2017-12-29T04:23:18.240Z,18.4
2017-12-29T04:23:43.858Z,18.4
2017-12-29T04:24:09.415Z,18.4
2017-12-29T04:24:34.976Z,18.37
2017-12-29T04:25:00.525Z,18.39
2017-12-29T04:25:26.112Z,18.43
2017-12-29T04:25:51.684Z,18.4
2017-12-29T04:26:17.256Z,18.42
2017-12-29T04:26:42.892Z,18.49
2017-12-29T04:27:08.462Z,18.39
2017-12-29T04:27:34.028Z,18.49
2017-12-29T04:27:59.570Z,18.43
2017-12-29T04:28:25.184Z,18.39
2017-12-29T04:28:50.768Z,18.44
2017-12-29T04:29:16.362Z,18.43
2017-12-29T04:29:41.935Z,18.37
2017-12-29T04:30:07.500Z,18.47
2017-12-29T04:30:33.046Z,18.46
2017-12-29T04:30:58.630Z,18.44
2017-12-29T04:31:24.185Z,18.43
2017-12-29T04:31:49.742Z,18.44
2017-12-29T04:32:15.379Z,18.44
2017-12-29T04:32:40.938Z,18.42
2017-12-29T04:33:06.497Z,18.46
2017-12-29T04:33:32.062Z,18.49
2017-12-29T04:33:57.625Z,18.5
2017-12-29T04:34:23.240Z,18.52
2017-12-29T04:34:48.797Z,18.5
2017-12-29T04:35:14.356Z,18.46
2017-12-29T04:35:39.946Z,18.49
2017-12-29T04:36:05.655Z,18.55
2017-12-29T04:36:31.202Z,18.5
2017-12-29T04:36:56.759Z,18.58
2017-12-29T04:37:22.359Z,18.47
2017-12-29T04:37:47.940Z,18.46
2017-12-29T04:38:13.488Z,18.5
2017-12-29T04:38:39.142Z,18.5
2017-12-29T04:39:04.740Z,18.52
2017-12-29T04:39:30.296Z,18.55
2017-12-29T04:39:55.860Z,18.47
2017-12-29T04:40:21.431Z,18.58
2017-12-29T04:40:46.970Z,18.46
2017-12-29T04:41:12.600Z,18.54
2017-12-29T04:41:38.162Z,18.55
2017-12-29T04:42:03.741Z,18.58
2017-12-29T04:42:29.307Z,18.55
2017-12-29T04:42:54.916Z,18.62
2017-12-29T04:43:20.470Z,18.61
2017-12-29T04:43:46.037Z,18.65
2017-12-29T04:44:11.593Z,18.57
2017-12-29T04:44:37.170Z,18.59
2017-12-29T04:45:02.682Z,18.58
2017-12-29T04:45:28.303Z,18.68
2017-12-29T04:45:53.874Z,18.58
2017-12-29T04:46:19.434Z,18.62
2017-12-29T04:46:44.996Z,18.68
2017-12-29T04:47:10.555Z,18.67
2017-12-29T04:47:36.153Z,18.58
2017-12-29T04:48:01.752Z,18.64
2017-12-29T04:48:27.317Z,18.67
2017-12-29T04:49:20.847Z,18.67
2017-12-29T04:49:46.402Z,18.62
2017-12-29T04:50:12.082Z,18.61
2017-12-29T04:50:37.639Z,18.72
2017-12-29T04:51:03.190Z,18.64
2017-12-29T04:51:28.760Z,18.72
2017-12-29T04:51:54.319Z,18.65
2017-12-29T04:52:19.861Z,18.67
2017-12-29T04:52:45.470Z,18.58
2017-12-29T04:53:11.013Z,18.72
2017-12-29T04:53:36.550Z,18.62
2017-12-29T04:54:02.240Z,18.65
2017-12-29T04:54:27.862Z,18.73
2017-12-29T04:54:53.421Z,18.72
2017-12-29T04:55:19.039Z,18.7
2017-12-29T04:55:44.604Z,18.72
2017-12-29T04:56:10.158Z,18.7
2017-12-29T04:56:35.735Z,18.7
2017-12-29T04:57:01.307Z,18.74
2017-12-29T04:57:26.870Z,18.74
2017-12-29T04:57:52.516Z,18.72
2017-12-29T04:58:18.072Z,18.79
2017-12-29T04:58:43.636Z,18.79
2017-12-29T04:59:09.185Z,18.7
2017-12-29T04:59:34.811Z,18.79
2017-12-29T22:53:34.108Z,18.74
2017-12-29T22:53:59.756Z,18.72
2017-12-29T22:54:25.360Z,18.76
2017-12-29T22:54:51.023Z,18.8
2017-12-29T22:55:16.635Z,18.82
2017-12-29T22:55:42.207Z,18.7
2017-12-29T22:56:07.798Z,18.74
2017-12-29T22:56:33.361Z,18.79
2017-12-29T22:56:58.958Z,18.77
2017-12-29T22:57:24.547Z,18.76
2017-12-29T22:57:50.148Z,18.72
2017-12-29T22:58:15.872Z,18.77
2017-12-29T22:58:41.533Z,18.79
2017-12-29T22:59:07.294Z,18.83
2017-12-29T22:59:32.986Z,18.77
2017-12-29T22:59:58.557Z,18.79
2017-12-29T23:00:24.147Z,18.74
2017-12-29T23:00:49.694Z,18.84
2017-12-29T23:01:15.313Z,18.77
2017-12-29T23:01:41.795Z,18.84
2017-12-29T23:02:07.375Z,18.74
2017-12-29T23:02:32.948Z,18.73
2017-12-29T23:02:58.549Z,18.73
2017-12-29T23:03:24.103Z,18.77
2017-12-29T23:03:49.692Z,18.82
2017-12-29T23:04:15.270Z,18.76
2017-12-29T23:04:40.809Z,18.74
2017-12-29T23:05:06.447Z,18.74
2017-12-29T23:05:31.986Z,18.76
2017-12-29T23:05:57.569Z,18.79
2017-12-29T23:06:45.901Z,18.77
2017-12-29T23:07:11.547Z,18.8
2017-12-29T23:07:37.107Z,18.77
2017-12-29T23:08:02.670Z,18.83
2017-12-29T23:08:28.218Z,18.77
2017-12-29T23:08:53.832Z,18.74
2017-12-29T23:09:19.403Z,18.76
2017-12-29T23:09:44.991Z,18.76
2017-12-29T23:10:10.607Z,18.77
2017-12-29T23:10:36.259Z,18.83
2017-12-29T23:11:01.853Z,18.8
2017-12-29T23:11:27.546Z,18.82
2017-12-29T23:11:53.121Z,18.79
2017-12-29T23:12:18.688Z,18.83
2017-12-29T23:12:44.263Z,18.79
2017-12-29T23:13:09.922Z,18.84
2017-12-29T23:13:35.508Z,18.82
2017-12-29T23:14:01.078Z,18.82
2017-12-29T23:14:26.634Z,18.83
2017-12-29T23:14:52.343Z,18.82
2017-12-29T23:15:17.968Z,18.87
2017-12-29T23:15:44.138Z,18.84
2017-12-29T23:16:09.636Z,18.83
2017-12-29T23:16:35.211Z,18.83
2017-12-29T23:17:00.760Z,18.8
2017-12-29T23:17:26.329Z,18.9
2017-12-29T23:17:51.947Z,18.79
2017-12-29T23:18:17.500Z,18.83
2017-12-29T23:18:43.054Z,18.8
2017-12-29T23:19:08.640Z,18.82
2017-12-29T23:19:34.213Z,18.86
2017-12-29T23:19:59.970Z,18.79
2017-12-29T23:20:25.530Z,18.8
2017-12-29T23:20:51.085Z,18.79
2017-12-29T23:21:16.651Z,18.87
2017-12-29T23:21:42.217Z,18.9
2017-12-29T23:22:07.792Z,18.87
2017-12-29T23:22:33.435Z,18.9
2017-12-29T23:23:42.230Z,18.9
2017-12-29T23:24:07.801Z,18.86
2017-12-29T23:24:33.374Z,18.83
2017-12-29T23:24:58.989Z,18.86
2017-12-29T23:25:24.531Z,18.79
2017-12-29T23:25:50.122Z,18.87
2017-12-29T23:26:15.687Z,18.79
2017-12-29T23:26:41.336Z,18.8
2017-12-29T23:27:06.907Z,18.82